sensor_id;sensor_type;location;lat;lon;timestamp;P1;durP1;ratioP1;P2;durP2;ratioP2
61915;SDS011;47868;51.326;6.550;2023-07-28T00:01:15;4.15;;;2.72;;
61915;SDS011;47868;51.326;6.550;2023-07-28T00:03:41;8.10;;;3.55;;
61915;SDS011;47868;51.326;6.550;2023-07-28T00:06:07;3.58;;;3.28;;
61915;SDS011;47868;51.326;6.550;2023-07-28T00:08:33;4.95;;;3.30;;
61915;SDS011;47868;51.326;6.550;2023-07-28T00:10:59;5.88;;;3.15;;
61915;SDS011;47868;51.326;6.550;2023-07-28T00:13:25;5.25;;;3.30;;
61915;SDS011;47868;51.326;6.550;2023-07-28T00:15:51;3.58;;;3.20;;
61915;SDS011;47868;51.326;6.550;2023-07-28T00:18:17;5.80;;;3.55;;
61915;SDS011;47868;51.326;6.550;2023-07-28T00:20:43;3.80;;;3.45;;
61915;SDS011;47868;51.326;6.550;2023-07-28T00:23:09;3.38;;;3.08;;
61915;SDS011;47868;51.326;6.550;2023-07-28T00:25:35;4.70;;;3.35;;
61915;SDS011;47868;51.326;6.550;2023-07-28T00:28:01;6.78;;;3.42;;
61915;SDS011;47868;51.326;6.550;2023-07-28T00:30:27;4.88;;;3.53;;
61915;SDS011;47868;51.326;6.550;2023-07-28T00:32:53;3.70;;;3.30;;
61915;SDS011;47868;51.326;6.550;2023-07-28T00:35:19;4.07;;;3.67;;
61915;SDS011;47868;51.326;6.550;2023-07-28T00:37:45;5.25;;;3.40;;
61915;SDS011;47868;51.326;6.550;2023-07-28T00:40:11;4.25;;;3.85;;
61915;SDS011;47868;51.326;6.550;2023-07-28T00:42:38;4.80;;;3.47;;
61915;SDS011;47868;51.326;6.550;2023-07-28T00:45:04;4.53;;;3.60;;
61915;SDS011;47868;51.326;6.550;2023-07-28T00:47:30;5.72;;;3.83;;
61915;SDS011;47868;51.326;6.550;2023-07-28T00:49:56;4.00;;;3.20;;
61915;SDS011;47868;51.326;6.550;2023-07-28T00:52:22;6.20;;;4.03;;
61915;SDS011;47868;51.326;6.550;2023-07-28T00:54:48;4.35;;;3.53;;
61915;SDS011;47868;51.326;6.550;2023-07-28T00:57:14;5.07;;;3.88;;
61915;SDS011;47868;51.326;6.550;2023-07-28T00:59:40;3.88;;;3.40;;
61915;SDS011;47868;51.326;6.550;2023-07-28T01:02:06;4.22;;;3.05;;
61915;SDS011;47868;51.326;6.550;2023-07-28T01:04:32;4.10;;;3.80;;
61915;SDS011;47868;51.326;6.550;2023-07-28T01:09:29;3.85;;;3.50;;
61915;SDS011;47868;51.326;6.550;2023-07-28T01:11:59;7.78;;;4.30;;
61915;SDS011;47868;51.326;6.550;2023-07-28T01:14:26;4.20;;;3.88;;
61915;SDS011;47868;51.326;6.550;2023-07-28T01:16:52;4.60;;;3.80;;
61915;SDS011;47868;51.326;6.550;2023-07-28T01:19:19;4.60;;;3.78;;
61915;SDS011;47868;51.326;6.550;2023-07-28T01:21:45;4.90;;;3.83;;
61915;SDS011;47868;51.326;6.550;2023-07-28T01:24:21;4.63;;;4.00;;
61915;SDS011;47868;51.326;6.550;2023-07-28T01:26:50;3.92;;;3.50;;
61915;SDS011;47868;51.326;6.550;2023-07-28T01:29:17;4.13;;;3.80;;
61915;SDS011;47868;51.326;6.550;2023-07-28T01:31:45;4.53;;;3.55;;
61915;SDS011;47868;51.326;6.550;2023-07-28T01:34:11;5.40;;;3.67;;
61915;SDS011;47868;51.326;6.550;2023-07-28T01:36:37;4.07;;;3.67;;
61915;SDS011;47868;51.326;6.550;2023-07-28T01:39:03;3.70;;;3.40;;
61915;SDS011;47868;51.326;6.550;2023-07-28T01:41:29;5.68;;;3.58;;
61915;SDS011;47868;51.326;6.550;2023-07-28T01:43:55;3.97;;;3.58;;
61915;SDS011;47868;51.326;6.550;2023-07-28T01:46:21;4.60;;;3.90;;
61915;SDS011;47868;51.326;6.550;2023-07-28T01:48:47;8.27;;;3.45;;
61915;SDS011;47868;51.326;6.550;2023-07-28T01:51:13;4.03;;;3.70;;
61915;SDS011;47868;51.326;6.550;2023-07-28T01:53:39;4.13;;;3.72;;
61915;SDS011;47868;51.326;6.550;2023-07-28T01:56:05;6.32;;;3.85;;
61915;SDS011;47868;51.326;6.550;2023-07-28T01:58:31;3.70;;;3.40;;
61915;SDS011;47868;51.326;6.550;2023-07-28T02:00:57;3.80;;;3.38;;
61915;SDS011;47868;51.326;6.550;2023-07-28T02:03:23;3.70;;;3.08;;
61915;SDS011;47868;51.326;6.550;2023-07-28T02:05:49;4.53;;;2.95;;
61915;SDS011;47868;51.326;6.550;2023-07-28T02:08:15;2.90;;;2.63;;
61915;SDS011;47868;51.326;6.550;2023-07-28T02:10:42;4.05;;;2.88;;
61915;SDS011;47868;51.326;6.550;2023-07-28T02:13:08;3.13;;;2.85;;
61915;SDS011;47868;51.326;6.550;2023-07-28T02:15:34;2.88;;;2.67;;
61915;SDS011;47868;51.326;6.550;2023-07-28T02:18:00;3.75;;;2.70;;
61915;SDS011;47868;51.326;6.550;2023-07-28T02:20:26;3.22;;;2.40;;
61915;SDS011;47868;51.326;6.550;2023-07-28T02:22:52;3.08;;;2.65;;
61915;SDS011;47868;51.326;6.550;2023-07-28T02:25:18;2.53;;;2.33;;
61915;SDS011;47868;51.326;6.550;2023-07-28T02:27:44;3.17;;;2.25;;
61915;SDS011;47868;51.326;6.550;2023-07-28T02:30:10;2.50;;;2.30;;
61915;SDS011;47868;51.326;6.550;2023-07-28T02:32:36;2.60;;;2.40;;
61915;SDS011;47868;51.326;6.550;2023-07-28T02:35:02;2.92;;;2.72;;
61915;SDS011;47868;51.326;6.550;2023-07-28T02:37:28;3.15;;;2.30;;
61915;SDS011;47868;51.326;6.550;2023-07-28T02:39:54;2.53;;;2.33;;
61915;SDS011;47868;51.326;6.550;2023-07-28T02:42:20;2.88;;;2.30;;
61915;SDS011;47868;51.326;6.550;2023-07-28T02:44:48;2.80;;;2.60;;
61915;SDS011;47868;51.326;6.550;2023-07-28T02:47:14;2.47;;;2.28;;
61915;SDS011;47868;51.326;6.550;2023-07-28T02:49:40;3.03;;;2.55;;
61915;SDS011;47868;51.326;6.550;2023-07-28T02:52:07;2.80;;;2.60;;
61915;SDS011;47868;51.326;6.550;2023-07-28T02:54:33;2.63;;;2.42;;
61915;SDS011;47868;51.326;6.550;2023-07-28T02:56:59;3.00;;;2.70;;
61915;SDS011;47868;51.326;6.550;2023-07-28T02:59:25;2.67;;;2.42;;
61915;SDS011;47868;51.326;6.550;2023-07-28T03:01:51;2.80;;;2.60;;
61915;SDS011;47868;51.326;6.550;2023-07-28T03:04:18;2.53;;;2.33;;
61915;SDS011;47868;51.326;6.550;2023-07-28T03:06:47;2.75;;;2.55;;
61915;SDS011;47868;51.326;6.550;2023-07-28T03:09:13;2.85;;;2.65;;
61915;SDS011;47868;51.326;6.550;2023-07-28T03:11:40;2.95;;;2.75;;
61915;SDS011;47868;51.326;6.550;2023-07-28T03:14:06;4.28;;;2.92;;
61915;SDS011;47868;51.326;6.550;2023-07-28T03:16:32;3.38;;;2.90;;
61915;SDS011;47868;51.326;6.550;2023-07-28T03:18:58;2.55;;;2.28;;
61915;SDS011;47868;51.326;6.550;2023-07-28T03:21:24;3.67;;;2.33;;
61915;SDS011;47868;51.326;6.550;2023-07-28T03:23:50;3.78;;;2.55;;
61915;SDS011;47868;51.326;6.550;2023-07-28T03:26:16;2.75;;;2.40;;
61915;SDS011;47868;51.326;6.550;2023-07-28T03:28:42;3.45;;;2.58;;
61915;SDS011;47868;51.326;6.550;2023-07-28T03:31:08;3.22;;;2.58;;
61915;SDS011;47868;51.326;6.550;2023-07-28T03:33:34;3.42;;;2.10;;
61915;SDS011;47868;51.326;6.550;2023-07-28T03:36:00;2.10;;;2.00;;
61915;SDS011;47868;51.326;6.550;2023-07-28T03:38:26;2.58;;;2.03;;
61915;SDS011;47868;51.326;6.550;2023-07-28T03:40:52;1.98;;;1.88;;
61915;SDS011;47868;51.326;6.550;2023-07-28T03:43:18;7.85;;;2.20;;
61915;SDS011;47868;51.326;6.550;2023-07-28T03:45:44;2.45;;;2.25;;
61915;SDS011;47868;51.326;6.550;2023-07-28T03:48:10;2.08;;;1.95;;
61915;SDS011;47868;51.326;6.550;2023-07-28T03:50:36;3.00;;;2.10;;
61915;SDS011;47868;51.326;6.550;2023-07-28T03:53:02;2.35;;;2.13;;
61915;SDS011;47868;51.326;6.550;2023-07-28T03:55:28;3.03;;;2.05;;
61915;SDS011;47868;51.326;6.550;2023-07-28T03:57:53;2.85;;;2.40;;
61915;SDS011;47868;51.326;6.550;2023-07-28T04:00:19;2.20;;;2.00;;
61915;SDS011;47868;51.326;6.550;2023-07-28T04:02:45;6.18;;;2.33;;
61915;SDS011;47868;51.326;6.550;2023-07-28T04:05:11;2.33;;;2.22;;
61915;SDS011;47868;51.326;6.550;2023-07-28T04:07:37;3.22;;;2.42;;
61915;SDS011;47868;51.326;6.550;2023-07-28T04:10:03;2.97;;;2.47;;
61915;SDS011;47868;51.326;6.550;2023-07-28T04:12:29;3.05;;;2.40;;
61915;SDS011;47868;51.326;6.550;2023-07-28T04:14:55;3.03;;;2.00;;
61915;SDS011;47868;51.326;6.550;2023-07-28T04:17:21;3.15;;;2.58;;
61915;SDS011;47868;51.326;6.550;2023-07-28T04:19:47;2.72;;;2.53;;
61915;SDS011;47868;51.326;6.550;2023-07-28T04:22:13;2.70;;;2.50;;
61915;SDS011;47868;51.326;6.550;2023-07-28T04:24:43;2.97;;;2.70;;
61915;SDS011;47868;51.326;6.550;2023-07-28T04:27:09;4.68;;;2.67;;
61915;SDS011;47868;51.326;6.550;2023-07-28T04:29:35;3.22;;;2.63;;
61915;SDS011;47868;51.326;6.550;2023-07-28T04:32:01;2.83;;;2.50;;
61915;SDS011;47868;51.326;6.550;2023-07-28T04:34:27;5.50;;;2.72;;
61915;SDS011;47868;51.326;6.550;2023-07-28T04:36:53;3.20;;;2.63;;
61915;SDS011;47868;51.326;6.550;2023-07-28T04:39:19;3.17;;;2.88;;
61915;SDS011;47868;51.326;6.550;2023-07-28T04:41:45;3.15;;;2.85;;
61915;SDS011;47868;51.326;6.550;2023-07-28T04:44:11;3.08;;;2.78;;
61915;SDS011;47868;51.326;6.550;2023-07-28T04:46:37;3.25;;;2.92;;
61915;SDS011;47868;51.326;6.550;2023-07-28T04:49:03;3.50;;;3.20;;
61915;SDS011;47868;51.326;6.550;2023-07-28T04:51:29;3.60;;;3.30;;
61915;SDS011;47868;51.326;6.550;2023-07-28T04:53:55;3.47;;;3.17;;
61915;SDS011;47868;51.326;6.550;2023-07-28T04:56:21;3.60;;;3.10;;
61915;SDS011;47868;51.326;6.550;2023-07-28T04:58:48;4.90;;;2.90;;
61915;SDS011;47868;51.326;6.550;2023-07-28T05:01:14;7.13;;;3.80;;
61915;SDS011;47868;51.326;6.550;2023-07-28T05:03:40;3.58;;;3.28;;
61915;SDS011;47868;51.326;6.550;2023-07-28T05:06:06;4.60;;;3.60;;
61915;SDS011;47868;51.326;6.550;2023-07-28T05:08:32;4.32;;;3.92;;
61915;SDS011;47868;51.326;6.550;2023-07-28T05:10:58;4.13;;;3.83;;
61915;SDS011;47868;51.326;6.550;2023-07-28T05:13:24;4.00;;;3.60;;
61915;SDS011;47868;51.326;6.550;2023-07-28T05:15:50;4.90;;;4.15;;
61915;SDS011;47868;51.326;6.550;2023-07-28T05:18:16;4.75;;;4.28;;
61915;SDS011;47868;51.326;6.550;2023-07-28T05:20:42;6.20;;;4.43;;
61915;SDS011;47868;51.326;6.550;2023-07-28T05:23:08;4.45;;;4.07;;
61915;SDS011;47868;51.326;6.550;2023-07-28T05:25:34;5.57;;;4.70;;
61915;SDS011;47868;51.326;6.550;2023-07-28T05:28:00;5.50;;;4.93;;
61915;SDS011;47868;51.326;6.550;2023-07-28T05:30:26;5.05;;;4.60;;
61915;SDS011;47868;51.326;6.550;2023-07-28T05:32:53;6.85;;;4.43;;
61915;SDS011;47868;51.326;6.550;2023-07-28T05:35:19;5.07;;;4.57;;
61915;SDS011;47868;51.326;6.550;2023-07-28T05:37:54;5.47;;;4.97;;
61915;SDS011;47868;51.326;6.550;2023-07-28T05:40:20;6.20;;;4.75;;
61915;SDS011;47868;51.326;6.550;2023-07-28T05:42:46;5.05;;;4.53;;
61915;SDS011;47868;51.326;6.550;2023-07-28T05:45:12;5.47;;;4.97;;
61915;SDS011;47868;51.326;6.550;2023-07-28T05:47:38;6.05;;;4.78;;
61915;SDS011;47868;51.326;6.550;2023-07-28T05:50:04;5.60;;;5.10;;
61915;SDS011;47868;51.326;6.550;2023-07-28T05:52:30;5.43;;;4.93;;
61915;SDS011;47868;51.326;6.550;2023-07-28T05:54:56;5.75;;;5.15;;
61915;SDS011;47868;51.326;6.550;2023-07-28T05:57:25;6.10;;;5.35;;
61915;SDS011;47868;51.326;6.550;2023-07-28T05:59:51;6.53;;;5.55;;
61915;SDS011;47868;51.326;6.550;2023-07-28T06:02:19;5.95;;;5.35;;
61915;SDS011;47868;51.326;6.550;2023-07-28T06:04:45;8.52;;;5.82;;
61915;SDS011;47868;51.326;6.550;2023-07-28T06:07:11;6.13;;;5.38;;
61915;SDS011;47868;51.326;6.550;2023-07-28T06:09:37;6.80;;;5.70;;
61915;SDS011;47868;51.326;6.550;2023-07-28T06:12:03;5.22;;;4.82;;
61915;SDS011;47868;51.326;6.550;2023-07-28T06:14:29;7.45;;;4.82;;
61915;SDS011;47868;51.326;6.550;2023-07-28T06:16:55;5.93;;;4.90;;
61915;SDS011;47868;51.326;6.550;2023-07-28T06:19:21;5.38;;;4.88;;
61915;SDS011;47868;51.326;6.550;2023-07-28T06:21:49;6.03;;;4.97;;
61915;SDS011;47868;51.326;6.550;2023-07-28T06:24:18;7.00;;;5.55;;
61915;SDS011;47868;51.326;6.550;2023-07-28T06:26:44;5.82;;;5.07;;
61915;SDS011;47868;51.326;6.550;2023-07-28T06:29:10;8.38;;;5.78;;
61915;SDS011;47868;51.326;6.550;2023-07-28T06:31:36;7.07;;;5.68;;
61915;SDS011;47868;51.326;6.550;2023-07-28T06:34:02;7.13;;;5.70;;
61915;SDS011;47868;51.326;6.550;2023-07-28T06:36:28;9.57;;;6.35;;
61915;SDS011;47868;51.326;6.550;2023-07-28T06:38:54;7.65;;;6.35;;
61915;SDS011;47868;51.326;6.550;2023-07-28T06:41:20;7.97;;;5.80;;
61915;SDS011;47868;51.326;6.550;2023-07-28T06:43:46;6.07;;;5.45;;
61915;SDS011;47868;51.326;6.550;2023-07-28T06:46:14;5.55;;;4.60;;
61915;SDS011;47868;51.326;6.550;2023-07-28T06:48:40;5.28;;;4.45;;
61915;SDS011;47868;51.326;6.550;2023-07-28T06:51:06;5.30;;;4.80;;
61915;SDS011;47868;51.326;6.550;2023-07-28T06:53:32;4.97;;;4.57;;
61915;SDS011;47868;51.326;6.550;2023-07-28T06:55:59;5.38;;;4.30;;
61915;SDS011;47868;51.326;6.550;2023-07-28T06:58:25;4.35;;;3.95;;
61915;SDS011;47868;51.326;6.550;2023-07-28T07:00:51;6.03;;;4.13;;
61915;SDS011;47868;51.326;6.550;2023-07-28T07:03:18;5.13;;;4.35;;
61915;SDS011;47868;51.326;6.550;2023-07-28T07:05:44;5.20;;;4.70;;
61915;SDS011;47868;51.326;6.550;2023-07-28T07:08:10;5.53;;;5.03;;
61915;SDS011;47868;51.326;6.550;2023-07-28T07:10:37;7.05;;;5.05;;
61915;SDS011;47868;51.326;6.550;2023-07-28T07:13:03;6.68;;;5.70;;
61915;SDS011;47868;51.326;6.550;2023-07-28T07:15:29;5.85;;;5.28;;
61915;SDS011;47868;51.326;6.550;2023-07-28T07:17:55;5.90;;;5.30;;
61915;SDS011;47868;51.326;6.550;2023-07-28T07:20:23;6.35;;;5.70;;
61915;SDS011;47868;51.326;6.550;2023-07-28T07:22:49;6.55;;;5.95;;
61915;SDS011;47868;51.326;6.550;2023-07-28T07:25:15;8.07;;;5.57;;
61915;SDS011;47868;51.326;6.550;2023-07-28T07:27:41;5.85;;;5.35;;
61915;SDS011;47868;51.326;6.550;2023-07-28T07:30:07;5.32;;;4.85;;
61915;SDS011;47868;51.326;6.550;2023-07-28T07:32:33;4.60;;;4.25;;
61915;SDS011;47868;51.326;6.550;2023-07-28T07:34:59;4.75;;;4.35;;
61915;SDS011;47868;51.326;6.550;2023-07-28T07:37:25;4.80;;;4.30;;
61915;SDS011;47868;51.326;6.550;2023-07-28T07:39:51;4.55;;;4.22;;
61915;SDS011;47868;51.326;6.550;2023-07-28T07:42:17;4.65;;;4.13;;
61915;SDS011;47868;51.326;6.550;2023-07-28T07:44:43;4.07;;;3.70;;
61915;SDS011;47868;51.326;6.550;2023-07-28T07:47:14;4.10;;;3.70;;
61915;SDS011;47868;51.326;6.550;2023-07-28T07:49:41;3.55;;;3.30;;
61915;SDS011;47868;51.326;6.550;2023-07-28T07:52:07;3.75;;;3.45;;
61915;SDS011;47868;51.326;6.550;2023-07-28T07:54:36;3.88;;;2.88;;
61915;SDS011;47868;51.326;6.550;2023-07-28T07:57:03;2.80;;;2.47;;
61915;SDS011;47868;51.326;6.550;2023-07-28T07:59:29;3.17;;;2.88;;
61915;SDS011;47868;51.326;6.550;2023-07-28T08:01:57;3.85;;;2.42;;
61915;SDS011;47868;51.326;6.550;2023-07-28T08:04:25;3.05;;;2.60;;
61915;SDS011;47868;51.326;6.550;2023-07-28T08:06:53;2.55;;;2.10;;
61915;SDS011;47868;51.326;6.550;2023-07-28T08:09:19;2.63;;;2.40;;
61915;SDS011;47868;51.326;6.550;2023-07-28T08:11:45;5.60;;;3.40;;
61915;SDS011;47868;51.326;6.550;2023-07-28T08:14:11;3.15;;;2.85;;
61915;SDS011;47868;51.326;6.550;2023-07-28T08:16:37;3.92;;;3.50;;
61915;SDS011;47868;51.326;6.550;2023-07-28T08:19:03;5.05;;;3.40;;
61915;SDS011;47868;51.326;6.550;2023-07-28T08:21:30;4.00;;;3.60;;
61915;SDS011;47868;51.326;6.550;2023-07-28T08:24:01;4.32;;;3.58;;
61915;SDS011;47868;51.326;6.550;2023-07-28T08:26:28;5.05;;;4.00;;
61915;SDS011;47868;51.326;6.550;2023-07-28T08:28:53;6.13;;;4.57;;
61915;SDS011;47868;51.326;6.550;2023-07-28T08:31:19;7.22;;;4.35;;
61915;SDS011;47868;51.326;6.550;2023-07-28T08:33:45;4.53;;;4.13;;
61915;SDS011;47868;51.326;6.550;2023-07-28T08:36:12;4.85;;;4.43;;
61915;SDS011;47868;51.326;6.550;2023-07-28T08:38:38;4.90;;;4.03;;
61915;SDS011;47868;51.326;6.550;2023-07-28T08:41:04;6.22;;;4.28;;
61915;SDS011;47868;51.326;6.550;2023-07-28T08:43:30;5.55;;;4.85;;
61915;SDS011;47868;51.326;6.550;2023-07-28T08:45:56;6.15;;;5.15;;
61915;SDS011;47868;51.326;6.550;2023-07-28T08:48:23;6.32;;;5.40;;
61915;SDS011;47868;51.326;6.550;2023-07-28T08:50:49;5.28;;;4.78;;
61915;SDS011;47868;51.326;6.550;2023-07-28T08:53:16;5.55;;;4.88;;
61915;SDS011;47868;51.326;6.550;2023-07-28T08:55:42;4.95;;;4.45;;
61915;SDS011;47868;51.326;6.550;2023-07-28T09:00:40;5.10;;;3.90;;
61915;SDS011;47868;51.326;6.550;2023-07-28T09:03:10;4.63;;;4.32;;
61915;SDS011;47868;51.326;6.550;2023-07-28T09:05:36;4.53;;;3.67;;
61915;SDS011;47868;51.326;6.550;2023-07-28T09:08:05;6.68;;;4.05;;
61915;SDS011;47868;51.326;6.550;2023-07-28T09:10:47;3.53;;;3.22;;
61915;SDS011;47868;51.326;6.550;2023-07-28T09:13:14;4.65;;;3.17;;
61915;SDS011;47868;51.326;6.550;2023-07-28T09:15:40;4.63;;;3.30;;
61915;SDS011;47868;51.326;6.550;2023-07-28T09:18:07;8.48;;;3.97;;
61915;SDS011;47868;51.326;6.550;2023-07-28T09:20:35;4.75;;;3.50;;
61915;SDS011;47868;51.326;6.550;2023-07-28T09:23:01;3.78;;;3.47;;
61915;SDS011;47868;51.326;6.550;2023-07-28T09:25:28;3.60;;;3.30;;
61915;SDS011;47868;51.326;6.550;2023-07-28T09:27:54;4.15;;;3.35;;
61915;SDS011;47868;51.326;6.550;2023-07-28T09:30:21;3.45;;;3.15;;
61915;SDS011;47868;51.326;6.550;2023-07-28T09:32:48;5.53;;;2.90;;
61915;SDS011;47868;51.326;6.550;2023-07-28T09:35:14;3.95;;;2.95;;
61915;SDS011;47868;51.326;6.550;2023-07-28T09:37:41;5.57;;;2.92;;
61915;SDS011;47868;51.326;6.550;2023-07-28T09:40:08;3.10;;;2.80;;
61915;SDS011;47868;51.326;6.550;2023-07-28T09:42:38;4.75;;;3.85;;
61915;SDS011;47868;51.326;6.550;2023-07-28T09:45:05;5.10;;;3.70;;
61915;SDS011;47868;51.326;6.550;2023-07-28T09:47:32;4.68;;;4.03;;
61915;SDS011;47868;51.326;6.550;2023-07-28T09:49:59;4.07;;;3.63;;
61915;SDS011;47868;51.326;6.550;2023-07-28T09:52:28;4.28;;;3.80;;
61915;SDS011;47868;51.326;6.550;2023-07-28T09:54:56;4.72;;;2.60;;
61915;SDS011;47868;51.326;6.550;2023-07-28T09:57:25;4.07;;;3.05;;
61915;SDS011;47868;51.326;6.550;2023-07-28T09:59:52;3.60;;;2.83;;
61915;SDS011;47868;51.326;6.550;2023-07-28T10:02:20;5.60;;;3.22;;
61915;SDS011;47868;51.326;6.550;2023-07-28T10:04:46;2.83;;;2.63;;
61915;SDS011;47868;51.326;6.550;2023-07-28T10:07:12;3.80;;;2.97;;
61915;SDS011;47868;51.326;6.550;2023-07-28T10:09:38;5.03;;;2.80;;
61915;SDS011;47868;51.326;6.550;2023-07-28T10:12:05;3.22;;;2.92;;
61915;SDS011;47868;51.326;6.550;2023-07-28T10:14:34;3.05;;;2.58;;
61915;SDS011;47868;51.326;6.550;2023-07-28T10:17:03;3.20;;;2.70;;
61915;SDS011;47868;51.326;6.550;2023-07-28T10:19:29;2.60;;;2.40;;
61915;SDS011;47868;51.326;6.550;2023-07-28T10:22:01;3.63;;;2.70;;
61915;SDS011;47868;51.326;6.550;2023-07-28T10:27:16;2.30;;;2.00;;
61915;SDS011;47868;51.326;6.550;2023-07-28T10:29:57;3.65;;;2.00;;
61915;SDS011;47868;51.326;6.550;2023-07-28T10:32:27;2.08;;;1.77;;
61915;SDS011;47868;51.326;6.550;2023-07-28T10:35:00;3.35;;;1.92;;
61915;SDS011;47868;51.326;6.550;2023-07-28T10:37:27;1.65;;;1.55;;
61915;SDS011;47868;51.326;6.550;2023-07-28T10:42:38;2.55;;;1.80;;
61915;SDS011;47868;51.326;6.550;2023-07-28T10:45:04;2.30;;;1.85;;
61915;SDS011;47868;51.326;6.550;2023-07-28T10:47:31;4.60;;;1.60;;
61915;SDS011;47868;51.326;6.550;2023-07-28T10:50:02;4.05;;;1.77;;
61915;SDS011;47868;51.326;6.550;2023-07-28T10:52:29;4.22;;;1.60;;
61915;SDS011;47868;51.326;6.550;2023-07-28T10:54:55;3.38;;;1.92;;
61915;SDS011;47868;51.326;6.550;2023-07-28T10:57:23;1.75;;;1.65;;
61915;SDS011;47868;51.326;6.550;2023-07-28T10:59:51;2.30;;;2.10;;
61915;SDS011;47868;51.326;6.550;2023-07-28T11:02:17;5.90;;;2.88;;
61915;SDS011;47868;51.326;6.550;2023-07-28T11:04:46;5.00;;;2.38;;
61915;SDS011;47868;51.326;6.550;2023-07-28T11:07:12;3.70;;;1.70;;
61915;SDS011;47868;51.326;6.550;2023-07-28T11:09:38;2.00;;;1.80;;
61915;SDS011;47868;51.326;6.550;2023-07-28T11:12:07;1.88;;;1.73;;
61915;SDS011;47868;51.326;6.550;2023-07-28T11:14:34;2.15;;;1.70;;
61915;SDS011;47868;51.326;6.550;2023-07-28T11:17:01;1.95;;;1.63;;
61915;SDS011;47868;51.326;6.550;2023-07-28T11:19:27;1.42;;;1.25;;
61915;SDS011;47868;51.326;6.550;2023-07-28T11:21:54;1.60;;;1.50;;
61915;SDS011;47868;51.326;6.550;2023-07-28T11:24:20;2.20;;;1.20;;
61915;SDS011;47868;51.326;6.550;2023-07-28T11:26:47;0.90;;;0.90;;
61915;SDS011;47868;51.326;6.550;2023-07-28T11:29:14;1.77;;;1.10;;
61915;SDS011;47868;51.326;6.550;2023-07-28T11:31:41;1.30;;;1.20;;
61915;SDS011;47868;51.326;6.550;2023-07-28T11:34:14;1.35;;;1.25;;
61915;SDS011;47868;51.326;6.550;2023-07-28T11:36:40;1.08;;;1.00;;
61915;SDS011;47868;51.326;6.550;2023-07-28T11:39:06;1.10;;;1.00;;
61915;SDS011;47868;51.326;6.550;2023-07-28T11:41:33;0.80;;;0.80;;
61915;SDS011;47868;51.326;6.550;2023-07-28T11:43:59;0.73;;;0.73;;
61915;SDS011;47868;51.326;6.550;2023-07-28T11:51:36;0.70;;;0.70;;
61915;SDS011;47868;51.326;6.550;2023-07-28T11:54:03;0.60;;;0.60;;
61915;SDS011;47868;51.326;6.550;2023-07-28T11:56:29;0.93;;;0.45;;
61915;SDS011;47868;51.326;6.550;2023-07-28T11:58:55;1.02;;;0.70;;
61915;SDS011;47868;51.326;6.550;2023-07-28T12:01:21;1.42;;;0.70;;
61915;SDS011;47868;51.326;6.550;2023-07-28T12:03:48;1.13;;;0.75;;
61915;SDS011;47868;51.326;6.550;2023-07-28T12:06:14;1.60;;;0.80;;
61915;SDS011;47868;51.326;6.550;2023-07-28T12:08:40;2.00;;;1.10;;
61915;SDS011;47868;51.326;6.550;2023-07-28T12:11:11;1.50;;;0.90;;
61915;SDS011;47868;51.326;6.550;2023-07-28T12:13:48;1.58;;;0.95;;
61915;SDS011;47868;51.326;6.550;2023-07-28T12:18:58;1.30;;;0.82;;
61915;SDS011;47868;51.326;6.550;2023-07-28T12:21:24;1.98;;;0.90;;
61915;SDS011;47868;51.326;6.550;2023-07-28T12:23:50;1.88;;;1.05;;
61915;SDS011;47868;51.326;6.550;2023-07-28T12:26:16;0.77;;;0.77;;
61915;SDS011;47868;51.326;6.550;2023-07-28T12:28:42;2.35;;;0.93;;
61915;SDS011;47868;51.326;6.550;2023-07-28T12:31:08;1.65;;;0.70;;
61915;SDS011;47868;51.326;6.550;2023-07-28T12:33:34;0.73;;;0.73;;
61915;SDS011;47868;51.326;6.550;2023-07-28T12:36:00;0.77;;;0.77;;
61915;SDS011;47868;51.326;6.550;2023-07-28T12:38:26;1.38;;;0.60;;
61915;SDS011;47868;51.326;6.550;2023-07-28T12:40:53;0.70;;;0.70;;
61915;SDS011;47868;51.326;6.550;2023-07-28T12:43:19;0.70;;;0.70;;
61915;SDS011;47868;51.326;6.550;2023-07-28T12:45:45;1.33;;;1.23;;
61915;SDS011;47868;51.326;6.550;2023-07-28T12:48:11;0.95;;;0.95;;
61915;SDS011;47868;51.326;6.550;2023-07-28T12:50:37;2.10;;;1.38;;
61915;SDS011;47868;51.326;6.550;2023-07-28T12:53:03;1.38;;;1.27;;
61915;SDS011;47868;51.326;6.550;2023-07-28T12:55:29;1.58;;;1.35;;
61915;SDS011;47868;51.326;6.550;2023-07-28T12:57:57;0.90;;;0.85;;
61915;SDS011;47868;51.326;6.550;2023-07-28T13:00:24;1.42;;;0.80;;
61915;SDS011;47868;51.326;6.550;2023-07-28T13:02:50;0.70;;;0.70;;
61915;SDS011;47868;51.326;6.550;2023-07-28T13:05:16;0.75;;;0.75;;
61915;SDS011;47868;51.326;6.550;2023-07-28T13:07:42;1.33;;;1.00;;
61915;SDS011;47868;51.326;6.550;2023-07-28T13:10:09;1.10;;;0.80;;
61915;SDS011;47868;51.326;6.550;2023-07-28T13:12:35;0.70;;;0.70;;
61915;SDS011;47868;51.326;6.550;2023-07-28T13:15:02;1.65;;;0.90;;
61915;SDS011;47868;51.326;6.550;2023-07-28T13:17:28;0.88;;;0.88;;
61915;SDS011;47868;51.326;6.550;2023-07-28T13:19:54;1.63;;;1.00;;
61915;SDS011;47868;51.326;6.550;2023-07-28T13:22:22;2.47;;;0.90;;
61915;SDS011;47868;51.326;6.550;2023-07-28T13:24:48;1.52;;;1.05;;
61915;SDS011;47868;51.326;6.550;2023-07-28T13:27:14;1.27;;;1.00;;
61915;SDS011;47868;51.326;6.550;2023-07-28T13:29:40;3.20;;;1.00;;
61915;SDS011;47868;51.326;6.550;2023-07-28T13:32:15;3.65;;;0.80;;
61915;SDS011;47868;51.326;6.550;2023-07-28T13:34:41;1.40;;;1.13;;
61915;SDS011;47868;51.326;6.550;2023-07-28T13:37:07;1.40;;;1.30;;
61915;SDS011;47868;51.326;6.550;2023-07-28T13:39:33;0.93;;;0.93;;
61915;SDS011;47868;51.326;6.550;2023-07-28T13:41:59;2.28;;;1.00;;
61915;SDS011;47868;51.326;6.550;2023-07-28T13:44:25;1.15;;;1.00;;
61915;SDS011;47868;51.326;6.550;2023-07-28T13:46:51;1.60;;;1.33;;
61915;SDS011;47868;51.326;6.550;2023-07-28T13:49:17;0.80;;;0.80;;
61915;SDS011;47868;51.326;6.550;2023-07-28T13:51:43;0.90;;;0.90;;
61915;SDS011;47868;51.326;6.550;2023-07-28T13:54:09;2.58;;;0.98;;
61915;SDS011;47868;51.326;6.550;2023-07-28T13:56:36;2.78;;;1.50;;
61915;SDS011;47868;51.326;6.550;2023-07-28T13:59:02;2.40;;;1.00;;
61915;SDS011;47868;51.326;6.550;2023-07-28T14:01:28;1.45;;;1.00;;
61915;SDS011;47868;51.326;6.550;2023-07-28T14:03:54;1.38;;;1.20;;
61915;SDS011;47868;51.326;6.550;2023-07-28T14:06:20;1.63;;;1.50;;
61915;SDS011;47868;51.326;6.550;2023-07-28T14:08:46;0.90;;;0.90;;
61915;SDS011;47868;51.326;6.550;2023-07-28T14:11:12;1.30;;;0.77;;
61915;SDS011;47868;51.326;6.550;2023-07-28T14:13:38;0.77;;;0.77;;
61915;SDS011;47868;51.326;6.550;2023-07-28T14:16:04;0.95;;;0.95;;
61915;SDS011;47868;51.326;6.550;2023-07-28T14:18:30;1.30;;;1.20;;
61915;SDS011;47868;51.326;6.550;2023-07-28T14:20:56;1.13;;;1.02;;
61915;SDS011;47868;51.326;6.550;2023-07-28T14:23:23;1.85;;;1.02;;
61915;SDS011;47868;51.326;6.550;2023-07-28T14:25:49;0.70;;;0.70;;
61915;SDS011;47868;51.326;6.550;2023-07-28T14:28:15;0.90;;;0.90;;
61915;SDS011;47868;51.326;6.550;2023-07-28T14:30:41;0.80;;;0.80;;
61915;SDS011;47868;51.326;6.550;2023-07-28T14:33:14;2.17;;;1.00;;
61915;SDS011;47868;51.326;6.550;2023-07-28T14:35:40;0.95;;;0.90;;
61915;SDS011;47868;51.326;6.550;2023-07-28T14:38:07;3.53;;;1.02;;
61915;SDS011;47868;51.326;6.550;2023-07-28T14:40:33;1.13;;;1.02;;
61915;SDS011;47868;51.326;6.550;2023-07-28T14:42:59;1.17;;;1.10;;
61915;SDS011;47868;51.326;6.550;2023-07-28T14:45:26;2.33;;;1.52;;
61915;SDS011;47868;51.326;6.550;2023-07-28T14:47:52;1.50;;;1.40;;
61915;SDS011;47868;51.326;6.550;2023-07-28T14:50:18;1.60;;;1.50;;
61915;SDS011;47868;51.326;6.550;2023-07-28T14:52:44;1.58;;;1.48;;
61915;SDS011;47868;51.326;6.550;2023-07-28T14:55:10;1.88;;;1.77;;
61915;SDS011;47868;51.326;6.550;2023-07-28T14:57:36;1.83;;;1.67;;
61915;SDS011;47868;51.326;6.550;2023-07-28T15:00:02;2.40;;;1.88;;
61915;SDS011;47868;51.326;6.550;2023-07-28T15:02:28;1.60;;;1.50;;